createdAt,value
2022-12-16T00:00:02.275Z,21.30
2022-12-16T00:02:33.557Z,22.52
2022-12-16T00:05:00.339Z,22.05
2022-12-16T00:07:27.214Z,23.65
2022-12-16T00:09:54.002Z,19.67
2022-12-16T00:12:21.421Z,21.15
2022-12-16T00:14:49.015Z,19.50
2022-12-16T00:17:15.797Z,23.63
2022-12-16T00:19:42.529Z,22.65
2022-12-16T00:22:09.518Z,21.48
2022-12-16T00:24:36.436Z,22.73
2022-12-16T00:27:03.872Z,21.95
2022-12-16T00:29:30.572Z,21.45
2022-12-16T00:31:57.451Z,21.52
2022-12-16T00:34:24.260Z,21.30
2022-12-16T00:36:51.013Z,21.73
2022-12-16T00:39:17.801Z,19.98
2022-12-16T00:41:44.606Z,20.35
2022-12-16T00:44:11.485Z,18.90
2022-12-16T00:46:38.283Z,21.42
2022-12-16T00:49:05.109Z,18.20
2022-12-16T00:51:31.873Z,19.63
2022-12-16T00:53:58.731Z,19.73
2022-12-16T00:56:25.539Z,21.13
2022-12-16T00:58:52.412Z,18.95
2022-12-16T01:01:19.518Z,19.13
2022-12-16T01:03:46.690Z,17.77
2022-12-16T01:06:17.037Z,18.63
2022-12-16T01:08:48.941Z,18.30
2022-12-16T01:11:18.299Z,20.58
2022-12-16T01:13:46.393Z,19.52
2022-12-16T01:16:13.210Z,19.92
2022-12-16T01:18:39.930Z,20.67
2022-12-16T01:21:08.532Z,18.40
2022-12-16T01:23:36.183Z,19.85
2022-12-16T01:26:03.771Z,20.17
2022-12-16T01:28:31.163Z,21.42
2022-12-16T01:31:01.809Z,20.67
2022-12-16T01:33:33.823Z,20.92
2022-12-16T01:36:02.988Z,20.77
2022-12-16T01:38:30.282Z,19.88
2022-12-16T01:40:57.562Z,20.88
2022-12-16T01:43:30.510Z,20.08
2022-12-16T01:46:23.332Z,20.35
2022-12-16T01:49:00.898Z,20.40
2022-12-16T01:51:36.298Z,19.10
2022-12-16T01:54:12.332Z,20.67
2022-12-16T01:56:45.698Z,20.83
2022-12-16T01:59:14.752Z,18.83
2022-12-16T02:01:41.954Z,20.88
2022-12-16T02:04:09.020Z,19.92
2022-12-16T02:06:35.752Z,19.95
2022-12-16T02:09:07.850Z,19.85
2022-12-16T02:12:02.979Z,19.20
2022-12-16T02:15:00.487Z,18.95
2022-12-16T02:17:52.723Z,19.13
2022-12-16T02:20:58.113Z,20.92
2022-12-16T02:23:31.019Z,21.95
2022-12-16T02:26:16.630Z,22.70
2022-12-16T02:29:21.259Z,20.42
2022-12-16T02:32:24.967Z,24.45
2022-12-16T02:35:18.519Z,23.95
2022-12-16T02:38:06.172Z,23.30
2022-12-16T02:40:55.601Z,21.17
2022-12-16T02:43:39.823Z,20.70
2022-12-16T02:46:08.251Z,23.05
2022-12-16T02:48:35.345Z,22.65
2022-12-16T02:51:02.248Z,24.05
2022-12-16T02:53:31.484Z,23.08
2022-12-16T02:56:18.624Z,24.55
2022-12-16T02:58:53.064Z,24.45
2022-12-16T03:01:46.276Z,26.17
2022-12-16T03:04:16.216Z,29.05
2022-12-16T03:06:47.900Z,28.92
2022-12-16T03:09:18.973Z,29.73
2022-12-16T03:11:48.247Z,32.75
2022-12-16T03:14:18.876Z,31.50
2022-12-16T03:16:47.063Z,30.58
2022-12-16T03:19:14.512Z,34.85
2022-12-16T03:22:09.204Z,32.50
2022-12-16T03:24:36.789Z,32.13
2022-12-16T03:27:20.807Z,30.48
2022-12-16T03:29:58.130Z,31.33
2022-12-16T03:32:31.165Z,31.65
2022-12-16T03:35:10.686Z,29.85
2022-12-16T03:37:38.358Z,29.95
2022-12-16T03:40:08.519Z,27.25
2022-12-16T03:42:36.683Z,27.20
2022-12-16T03:45:05.147Z,24.75
2022-12-16T03:47:32.190Z,24.58
2022-12-16T03:49:58.936Z,20.92
2022-12-16T03:52:25.683Z,20.92
2022-12-16T03:54:52.411Z,19.42
2022-12-16T03:57:19.367Z,18.25
2022-12-16T03:59:46.201Z,17.83
2022-12-16T04:02:13.014Z,16.60
2022-12-16T04:04:39.911Z,17.17
2022-12-16T04:07:21.740Z,16.02
2022-12-16T04:09:49.906Z,15.52
2022-12-16T04:12:35.488Z,15.32
2022-12-16T04:15:38.039Z,15.18
2022-12-16T04:18:24.422Z,15.93
2022-12-16T04:21:14.159Z,14.68
2022-12-16T04:24:11.658Z,14.73
2022-12-16T04:26:56.746Z,15.00
2022-12-16T04:29:24.203Z,15.18
2022-12-16T04:31:52.193Z,14.98
2022-12-16T04:34:29.521Z,15.20
2022-12-16T04:37:20.049Z,15.32
2022-12-16T04:40:06.154Z,14.55
2022-12-16T04:42:51.911Z,15.25
2022-12-16T04:45:37.176Z,15.32
2022-12-16T04:48:23.012Z,15.20
2022-12-16T04:51:08.516Z,14.77
2022-12-16T04:53:53.988Z,15.20
2022-12-16T04:56:39.251Z,15.00
2022-12-16T04:59:24.716Z,17.38
2022-12-16T05:02:10.148Z,15.90
2022-12-16T05:04:55.382Z,15.68
2022-12-16T05:07:41.849Z,15.80
2022-12-16T05:10:27.833Z,17.25
2022-12-16T05:13:13.782Z,16.50
2022-12-16T05:15:59.600Z,16.75
2022-12-16T05:18:44.805Z,16.67
2022-12-16T05:21:30.003Z,16.92
2022-12-16T05:24:15.029Z,16.83
2022-12-16T05:27:00.089Z,18.70
2022-12-16T05:29:45.464Z,17.48
2022-12-16T05:32:31.125Z,20.50
2022-12-16T05:35:16.875Z,20.40
2022-12-16T05:38:02.132Z,19.83
2022-12-16T05:40:47.358Z,16.58
2022-12-16T05:43:33.023Z,17.45
2022-12-16T05:46:18.615Z,16.88
2022-12-16T05:49:04.320Z,17.05
2022-12-16T05:51:49.411Z,16.33
2022-12-16T05:54:34.610Z,15.90
2022-12-16T05:57:19.782Z,14.60
2022-12-16T06:00:05.009Z,17.00
2022-12-16T06:02:57.705Z,15.93
2022-12-16T06:05:42.868Z,16.05
2022-12-16T06:08:28.295Z,14.75
2022-12-16T06:11:13.543Z,15.25
2022-12-16T06:13:58.763Z,16.77
2022-12-16T06:16:44.195Z,15.80
2022-12-16T06:19:30.033Z,15.57
2022-12-16T06:22:15.491Z,17.05
2022-12-16T06:25:01.155Z,16.50
2022-12-16T06:27:46.727Z,17.65
2022-12-16T06:30:32.424Z,16.67
2022-12-16T06:33:17.624Z,17.88
2022-12-16T06:36:03.009Z,17.00
2022-12-16T06:38:48.200Z,19.20
2022-12-16T06:41:33.400Z,18.88
2022-12-16T06:44:19.047Z,18.10
2022-12-16T06:47:04.218Z,18.23
2022-12-16T06:49:49.362Z,18.15
2022-12-16T06:52:34.753Z,17.92
2022-12-16T06:55:19.950Z,18.80
2022-12-16T06:58:09.754Z,17.27
2022-12-16T07:00:55.290Z,18.30
2022-12-16T07:03:40.963Z,16.63
2022-12-16T07:06:26.959Z,18.35
2022-12-16T07:09:12.780Z,18.48
2022-12-16T07:12:01.103Z,18.45
2022-12-16T07:14:46.389Z,17.75
2022-12-16T07:17:31.592Z,18.75
2022-12-16T07:20:19.455Z,18.45
2022-12-16T07:23:12.154Z,15.90
2022-12-16T07:26:03.149Z,15.32
2022-12-16T07:28:48.288Z,17.42
2022-12-16T07:31:33.944Z,19.98
2022-12-16T07:34:19.212Z,22.10
2022-12-16T07:37:04.560Z,26.25
2022-12-16T07:39:54.560Z,26.25
2022-12-16T07:42:40.966Z,25.70
2022-12-16T07:45:26.940Z,25.60
2022-12-16T07:48:12.304Z,24.33
2022-12-16T07:50:57.795Z,23.42
2022-12-16T07:53:43.816Z,21.13
2022-12-16T07:56:29.618Z,23.17
2022-12-16T07:59:14.926Z,23.70
2022-12-16T08:02:00.502Z,22.67
2022-12-16T08:04:46.572Z,21.98
2022-12-16T08:07:32.007Z,20.35
2022-12-16T08:10:17.909Z,18.98
2022-12-16T08:13:05.843Z,17.58
2022-12-16T08:15:54.280Z,16.08
2022-12-16T08:18:39.568Z,14.07
2022-12-16T08:21:26.471Z,13.77
2022-12-16T08:24:11.800Z,12.02
2022-12-16T08:26:57.212Z,13.02
2022-12-16T08:29:44.730Z,10.50
2022-12-16T08:32:31.346Z,11.45
2022-12-16T08:35:17.288Z,10.25
2022-12-16T08:38:02.759Z,10.57
2022-12-16T08:40:48.322Z,11.02
2022-12-16T08:43:34.090Z,11.13
2022-12-16T08:46:19.612Z,10.73
2022-12-16T08:49:05.201Z,11.02
2022-12-16T08:51:50.519Z,11.88
2022-12-16T08:54:36.332Z,11.40
2022-12-16T08:57:22.213Z,11.88
2022-12-16T09:00:07.765Z,11.07
2022-12-16T09:02:53.331Z,9.68
2022-12-16T09:05:41.108Z,10.27
2022-12-16T09:08:26.464Z,9.13
2022-12-16T09:11:11.898Z,9.30
2022-12-16T09:13:57.182Z,9.00
2022-12-16T09:16:42.954Z,8.55
2022-12-16T09:19:29.855Z,7.57
2022-12-16T09:22:15.311Z,7.20
2022-12-16T09:25:00.962Z,7.55
2022-12-16T09:27:46.313Z,6.82
2022-12-16T09:30:32.056Z,7.03
2022-12-16T09:33:17.656Z,6.45
2022-12-16T09:36:02.984Z,6.10
2022-12-16T09:38:48.624Z,6.15
2022-12-16T09:41:50.988Z,6.10
2022-12-16T09:45:26.021Z,6.03
2022-12-16T09:48:25.536Z,5.25
2022-12-16T09:51:14.657Z,5.47
2022-12-16T09:54:02.043Z,5.32
2022-12-16T09:56:55.150Z,5.93
2022-12-16T09:59:46.089Z,6.90
2022-12-16T10:02:37.439Z,6.53
2022-12-16T10:05:28.694Z,7.13
2022-12-16T10:08:39.185Z,6.82
2022-12-16T10:11:34.810Z,7.35
2022-12-16T10:14:35.837Z,7.00
2022-12-16T10:17:23.742Z,7.40
2022-12-16T10:20:09.977Z,7.25
2022-12-16T10:23:04.925Z,7.13
2022-12-16T10:26:12.620Z,7.53
2022-12-16T10:29:01.386Z,7.30
2022-12-16T10:31:47.274Z,7.82
2022-12-16T10:34:44.356Z,7.00
2022-12-16T10:37:44.230Z,6.80
2022-12-16T10:40:37.519Z,7.57
2022-12-16T10:46:12.804Z,9.93
2022-12-16T10:48:58.295Z,9.30
2022-12-16T10:51:47.332Z,9.65
2022-12-16T10:54:50.842Z,10.60
2022-12-16T10:58:06.564Z,11.95
2022-12-16T11:01:39.423Z,12.55
2022-12-16T11:04:55.977Z,12.48
2022-12-16T11:07:55.389Z,12.45
2022-12-16T11:10:43.524Z,13.27
2022-12-16T11:13:37.464Z,14.23
2022-12-16T11:16:34.327Z,12.88
2022-12-16T11:19:20.395Z,13.40
2022-12-16T11:22:08.877Z,12.65
2022-12-16T11:24:54.443Z,12.90
2022-12-16T11:27:43.731Z,14.50
2022-12-16T11:30:38.711Z,11.55
2022-12-16T11:33:39.667Z,12.27
2022-12-16T11:36:30.184Z,11.30
2022-12-16T11:39:16.443Z,11.32
2022-12-16T11:42:06.191Z,11.13
2022-12-16T11:45:05.468Z,11.98
2022-12-16T11:48:04.503Z,12.50
2022-12-16T11:50:54.002Z,12.50
2022-12-16T11:53:46.944Z,13.57
2022-12-16T11:56:36.598Z,14.40
2022-12-16T11:59:29.801Z,14.57
2022-12-16T12:02:19.282Z,14.65
2022-12-16T12:05:06.982Z,15.77
2022-12-16T12:08:02.993Z,16.83
2022-12-16T12:10:53.047Z,16.95
2022-12-16T12:13:50.144Z,20.02
2022-12-16T12:16:45.182Z,22.13
2022-12-16T12:19:43.818Z,24.85
2022-12-16T12:22:47.526Z,23.15
2022-12-16T12:25:54.394Z,25.48
2022-12-16T12:28:48.944Z,25.67
2022-12-16T12:31:43.431Z,26.48
2022-12-16T12:34:39.109Z,25.77
2022-12-16T12:38:07.800Z,26.23
2022-12-16T12:42:01.622Z,25.75
2022-12-16T12:45:02.082Z,29.70
2022-12-16T12:47:49.983Z,29.77
2022-12-16T12:50:50.821Z,30.50
2022-12-16T12:54:04.086Z,31.73
2022-12-16T12:57:12.569Z,31.60
2022-12-16T13:00:18.744Z,31.25
2022-12-16T13:03:14.403Z,31.25
2022-12-16T13:06:01.030Z,32.75
2022-12-16T13:09:07.937Z,32.78
2022-12-16T13:11:54.321Z,33.58
2022-12-16T13:14:51.898Z,34.20
2022-12-16T13:17:43.490Z,35.13
2022-12-16T13:20:50.837Z,37.13
2022-12-16T13:24:03.668Z,36.67
2022-12-16T13:26:51.936Z,37.53
2022-12-16T13:29:44.561Z,38.70
2022-12-16T13:32:41.057Z,41.30
2022-12-16T13:35:29.565Z,40.90
2022-12-16T13:38:17.854Z,45.90
2022-12-16T13:41:45.978Z,48.03
2022-12-16T13:44:52.136Z,48.70
2022-12-16T13:47:52.599Z,49.00
2022-12-16T13:51:00.013Z,47.13
2022-12-16T13:53:47.813Z,48.45
2022-12-16T13:56:36.786Z,49.58
2022-12-16T13:59:32.529Z,50.38
2022-12-16T14:02:33.247Z,47.90
2022-12-16T14:05:19.131Z,51.50
2022-12-16T14:08:04.722Z,48.28
2022-12-16T14:10:59.890Z,49.92
2022-12-16T14:13:57.466Z,49.25
2022-12-16T14:17:16.533Z,51.95
2022-12-16T14:20:25.218Z,46.08
2022-12-16T14:23:47.247Z,46.55
2022-12-16T14:26:23.494Z,48.10
2022-12-16T14:29:09.142Z,47.08
2022-12-16T14:31:59.914Z,48.10
2022-12-16T14:34:55.069Z,50.15
2022-12-16T14:37:47.751Z,49.92
2022-12-16T14:40:47.364Z,50.65
2022-12-16T14:43:42.616Z,50.35
2022-12-16T14:46:53.958Z,47.65
2022-12-16T14:49:43.459Z,48.42
2022-12-16T14:52:43.672Z,47.72
2022-12-16T14:55:50.522Z,49.13
2022-12-16T14:58:38.411Z,48.13
2022-12-16T15:01:34.947Z,50.03
2022-12-16T15:04:24.215Z,47.55
2022-12-16T15:07:12.438Z,49.65
2022-12-16T15:10:01.421Z,47.53
2022-12-16T15:12:50.722Z,49.05
2022-12-16T15:16:03.130Z,45.03
2022-12-16T15:19:01.602Z,43.97
2022-12-16T15:21:47.133Z,43.55
2022-12-16T15:24:38.023Z,44.65
2022-12-16T15:27:52.422Z,41.55
2022-12-16T15:33:38.550Z,39.25
2022-12-16T15:36:25.046Z,40.80
2022-12-16T15:39:12.461Z,43.40
2022-12-16T15:41:57.617Z,40.70
2022-12-16T15:44:46.978Z,42.53
2022-12-16T15:47:51.984Z,39.88
2022-12-16T15:50:44.341Z,42.22
2022-12-16T15:53:54.283Z,40.80
2022-12-16T15:56:42.872Z,43.17
2022-12-16T15:59:45.288Z,43.08
2022-12-16T16:02:42.212Z,42.83
2022-12-16T16:05:37.326Z,42.88
2022-12-16T16:08:23.280Z,45.55
2022-12-16T16:11:08.590Z,42.58
2022-12-16T16:13:54.610Z,44.45
2022-12-16T16:16:42.246Z,46.60
2022-12-16T16:19:40.781Z,42.33
2022-12-16T16:22:35.744Z,41.38
2022-12-16T16:25:21.721Z,42.30
2022-12-16T16:28:07.455Z,41.35
2022-12-16T16:30:52.956Z,44.00
2022-12-16T16:33:38.471Z,42.28
2022-12-16T16:36:33.951Z,42.83
2022-12-16T16:39:20.278Z,39.53
2022-12-16T16:42:05.777Z,39.95
2022-12-16T16:44:50.877Z,39.55
2022-12-16T16:47:36.689Z,39.22
2022-12-16T16:50:21.988Z,37.45
2022-12-16T16:53:07.173Z,41.55
2022-12-16T16:55:52.593Z,44.10
2022-12-16T16:58:50.595Z,42.13
2022-12-16T17:01:37.285Z,39.70
2022-12-16T17:04:23.324Z,39.30
2022-12-16T17:07:08.884Z,37.25
2022-12-16T17:09:54.121Z,38.88
2022-12-16T17:12:47.553Z,38.17
2022-12-16T17:15:36.179Z,36.65
2022-12-16T17:18:22.488Z,36.38
2022-12-16T17:21:07.885Z,36.70
2022-12-16T17:23:56.582Z,39.10
2022-12-16T17:26:42.502Z,37.58
2022-12-16T17:29:42.759Z,37.72
2022-12-16T17:32:28.926Z,37.85
2022-12-16T17:35:14.427Z,39.50
2022-12-16T17:37:59.980Z,38.28
2022-12-16T17:40:45.766Z,37.35
2022-12-16T17:43:31.299Z,40.17
2022-12-16T17:46:18.219Z,39.47
2022-12-16T17:49:09.584Z,37.78
2022-12-16T17:51:54.721Z,43.58
2022-12-16T17:54:42.568Z,39.63
2022-12-16T17:57:27.845Z,42.03
2022-12-16T18:00:12.957Z,43.80
2022-12-16T18:02:59.959Z,42.28
2022-12-16T18:05:45.999Z,42.08
2022-12-16T18:08:31.642Z,41.05
2022-12-16T18:11:17.331Z,40.38
2022-12-16T18:14:03.066Z,41.85
2022-12-16T18:16:49.811Z,41.13
2022-12-16T18:19:35.950Z,41.53
2022-12-16T18:22:21.292Z,42.45
2022-12-16T18:25:06.844Z,40.53
2022-12-16T18:27:54.676Z,40.08
2022-12-16T18:30:42.895Z,38.63
2022-12-16T18:33:28.551Z,35.03
2022-12-16T18:36:13.936Z,34.28
2022-12-16T18:38:59.555Z,37.63
2022-12-16T18:41:45.438Z,35.50
2022-12-16T18:44:32.608Z,35.08
2022-12-16T18:47:18.581Z,35.80
2022-12-16T18:50:04.161Z,33.40
2022-12-16T18:52:49.905Z,33.13
2022-12-16T18:55:35.259Z,29.58
2022-12-16T18:58:49.814Z,30.13
2022-12-16T19:01:28.759Z,34.08
2022-12-16T19:04:15.849Z,29.83
2022-12-16T19:07:02.412Z,31.33
2022-12-16T19:09:47.897Z,32.80
2022-12-16T19:12:33.119Z,30.60
2022-12-16T19:15:18.680Z,31.42
2022-12-16T19:18:03.893Z,31.65
2022-12-16T19:20:49.173Z,33.30
2022-12-16T19:23:34.673Z,33.80
2022-12-16T19:26:21.080Z,31.17
2022-12-16T19:29:14.384Z,31.88
2022-12-16T19:31:59.697Z,30.90
2022-12-16T19:34:45.032Z,32.28
2022-12-16T19:37:30.631Z,33.78
2022-12-16T19:40:16.194Z,34.53
2022-12-16T19:43:01.776Z,32.83
2022-12-16T19:45:47.444Z,34.65
2022-12-16T19:48:33.003Z,33.30
2022-12-16T19:51:20.473Z,32.30
2022-12-16T19:54:06.349Z,30.35
2022-12-16T19:56:52.766Z,32.00
2022-12-16T19:59:41.073Z,31.60
2022-12-16T20:02:28.964Z,33.65
2022-12-16T20:05:14.446Z,30.73
2022-12-16T20:07:59.687Z,30.75
2022-12-16T20:10:45.237Z,32.45
2022-12-16T20:13:32.235Z,30.05
2022-12-16T20:16:28.404Z,29.60
2022-12-16T20:19:18.929Z,33.53
2022-12-16T20:22:06.884Z,30.48
2022-12-16T20:24:56.312Z,31.33
2022-12-16T20:27:42.406Z,30.92
2022-12-16T20:30:28.854Z,29.67
2022-12-16T20:33:14.440Z,31.67
2022-12-16T20:35:59.589Z,31.00
2022-12-16T20:38:44.957Z,29.05
2022-12-16T20:41:30.133Z,29.38
2022-12-16T20:44:15.447Z,30.77
2022-12-16T20:47:00.829Z,30.73
2022-12-16T20:49:46.008Z,30.30
2022-12-16T20:52:31.381Z,34.63
2022-12-16T20:55:16.953Z,32.88
2022-12-16T20:58:02.354Z,32.95
2022-12-16T21:00:47.508Z,44.83
2022-12-16T21:03:32.854Z,33.08
2022-12-16T21:06:18.424Z,33.95
2022-12-16T21:09:04.012Z,33.33
2022-12-16T21:11:49.334Z,34.17
2022-12-16T21:14:34.797Z,33.40
2022-12-16T21:17:20.096Z,35.03
2022-12-16T21:20:06.262Z,36.17
2022-12-16T21:22:51.668Z,37.70
2022-12-16T21:25:38.504Z,35.30
2022-12-16T21:28:24.056Z,34.35
2022-12-16T21:31:09.374Z,33.90
2022-12-16T21:33:55.470Z,34.17
2022-12-16T21:36:41.063Z,35.78
2022-12-16T21:39:26.184Z,35.50
2022-12-16T21:42:11.480Z,37.58
2022-12-16T21:44:56.804Z,35.58
2022-12-16T21:47:42.402Z,35.38
2022-12-16T21:50:28.326Z,35.88
2022-12-16T21:53:13.647Z,36.40
2022-12-16T21:55:59.094Z,36.90
2022-12-16T21:58:44.412Z,35.90
2022-12-16T22:01:29.736Z,36.25
2022-12-16T22:04:15.197Z,36.08
2022-12-16T22:07:00.375Z,35.63
2022-12-16T22:09:45.748Z,34.97
2022-12-16T22:12:31.118Z,35.78
2022-12-16T22:15:16.411Z,33.97
2022-12-16T22:18:01.869Z,33.78
2022-12-16T22:20:47.312Z,35.55
2022-12-16T22:23:32.891Z,35.40
2022-12-16T22:26:19.524Z,35.53
2022-12-16T22:29:05.540Z,36.05
2022-12-16T22:31:50.768Z,37.05
2022-12-16T22:34:37.103Z,37.00
2022-12-16T22:37:22.796Z,36.35
2022-12-16T22:40:08.255Z,35.35
2022-12-16T22:42:53.300Z,34.38
2022-12-16T22:45:40.773Z,33.97
2022-12-16T22:48:26.083Z,37.15
2022-12-16T22:51:11.642Z,35.00
2022-12-16T22:53:57.134Z,35.38
2022-12-16T22:56:42.323Z,36.75
2022-12-16T22:59:27.746Z,34.90
2022-12-16T23:02:13.090Z,34.05
2022-12-16T23:05:00.423Z,34.22
2022-12-16T23:07:45.614Z,33.88
2022-12-16T23:10:31.063Z,33.65
2022-12-16T23:13:16.320Z,35.15
2022-12-16T23:16:01.774Z,33.60
2022-12-16T23:18:47.500Z,35.97
2022-12-16T23:21:37.044Z,34.42
2022-12-16T23:24:22.818Z,35.63
2022-12-16T23:27:08.066Z,34.17
2022-12-16T23:29:53.448Z,32.80
2022-12-16T23:32:42.846Z,35.10
2022-12-16T23:35:28.203Z,33.08
2022-12-16T23:38:24.127Z,34.97
2022-12-16T23:41:16.858Z,35.83
2022-12-16T23:44:03.254Z,32.53
2022-12-16T23:46:48.749Z,35.13
2022-12-16T23:49:34.029Z,34.97
2022-12-16T23:52:19.127Z,34.92
2022-12-16T23:55:04.369Z,34.38
2022-12-16T23:57:49.646Z,34.42
